Terminal Aerodrome Forecast
Issued by NWS Charleston, WV

Current Version | Previous Version | Text Only | Print | Product List | Glossary Off
Versions: 1 2 3 4 5 6 7 8 9 10 11 12 13 14 15 16 17 18 19 20 21 22

103
FTUS41 KRLX 210550
TAFBKW
TAF
KBKW 210550Z 2106/2206 VRB03KT P6SM FEW150
     FM211200 22004KT P6SM BKN100
     FM211600 28007KT P6SM BKN050
     FM220000 VRB03KT P6SM BKN100
     FM220200 00000KT P6SM SCT100=

USA.gov is the U.S. government's official web portal to all federal, state and local government web resources and services.